Aeroporto :
LOGIN :

Iscrizione | Disclaimer

   EN    FR    IT 

 










Sommario :    VFR   VFR Marginale   IFR   IFR Intensivo   IFR Molto Intensivo
Visibilità : 
Base nubi : 
>= 8 km
>= 3000ft
5 / 8 km
1000 / 3000 ft
1500m / 5 km
500 / 1000 ft
800 / 1500m
200 / 500 ft
< 800m
< 200 ft
Simboli :   Temporali  Nebbia  Neve Forte  Precipitazioni Forti  Vento > 20 kt
SIGMETs :   Varie  Temporali  Ghiacco  Turbolenza  Onda orograficha  Ceneri Vulcaniche






- Altitudine del aeroporto : 1197 ft
- Codice IATA : SPM


ETAD - Spangdahlem Ab

ULTIMO METAR :
  • 201555Z AUTO 09005KT 9999 CLR 21/10 A2978 RMK AO2 SLP075 T02120101 $

METARs OBSOLETI :
  • 201455Z AUTO 07007KT 9999 FEW043 19/10 A2979 RMK AO2 SLP079 T01920099 57014 $
  • 201355Z AUTO 16006KT 9999 SCT050 19/09 A2980 RMK AO2 SLP082 T01940093 $
  • 201255Z AUTO 14004KT 9999 CLR 20/10 A2982 RMK AO2 SLP088 T02000101 $
  • 201155Z AUTO 10005KT 9999 SCT033 19/11 A2984 RMK AO2 SLP096 70028 T01910109 10193 20102 57004 $

TAF TAF ETAD
Valido dal 20 a 10 ore il 21 a 16 ore UTC


201000Z 2010/2116 21006KT 9999 SCT060 QNH2978INS
BECMG 2016/2017 21006KT 9999 FEW035 QNH2970INS
BECMG 2103/2104 21006KT 9999 SCT030 BKN080 QNH2963INS
BECMG 2110/2111 01009KT 9000 -SHRA SCT015 BKN025 QNH2959INS
BECMG 2111/2112 01009KT 9000 -TSRA BKN012 OVC025CB QNH2957INS
BECMG 2114/2115 01009KT 9000 -SHRA BKN010 QNH2956INS TX21/2014Z TN10/2104Z



MetMap, La meteo Aeronautica in un colpo d'occhio ! - Copyright ORBIFLY Dicembre 2007 - Disclaimer

ORBIFLY MET'MAP TEAM :

Programmazione e sviluppo : Alexandra Zaïnal
Concezione : Baudouin d'Aumeries
Supporto tecnico e logistico : Manuel Goepfert
Aiuto : Marc-Olivier Méhu
Aiuto per la traduzione : Arnaldo La Scala




FONTI E CREDITI :

   NOAA